LOG54HD EGPL-EGPF

Flight info

Callsign LOG54HD
Flight time 0h 35m
Altitude 23000
Route BEN DCT TOBMO Y958 BRUCE
Aircraft A320/M-SDE3FGHIRWY/LB1

Departure

Time 2026-04-16 20:37
Airport Benbecula Airport (EGPL)

Arrival

Time 2026-04-16 21:13
Airport Glasgow Airport (EGPF)
Time Latitude Longitude Altitude Speed Heading
2026-04-16 20:24 57.47530 -7.37214 26 ft 0 kts 16°
2026-04-16 20:31 57.47532 -7.37227 27 ft 2 kts 289°
2026-04-16 20:31 57.47510 -7.37284 27 ft 8 kts 270°
2026-04-16 20:31 57.47549 -7.37392 26 ft 13 kts 326°
2026-04-16 20:32 57.47576 -7.37425 27 ft 0 kts 324°
2026-04-16 20:34 57.47620 -7.37477 29 ft 19 kts 338°
2026-04-16 20:34 57.47697 -7.37380 27 ft 6 kts 55°
2026-04-16 20:35 57.47699 -7.37375 26 ft 2 kts 56°
2026-04-16 20:35 57.47718 -7.37316 26 ft 9 kts 59°
2026-04-16 20:35 57.47831 -7.37009 22 ft 49 kts 55°
2026-04-16 20:35 57.48088 -7.36332 23 ft 72 kts 54°
2026-04-16 20:36 57.48370 -7.35569 23 ft 60 kts 57°
2026-04-16 20:36 57.48525 -7.35150 20 ft 29 kts 55°
2026-04-16 20:36 57.48550 -7.35031 17 ft 2 kts 204°
2026-04-16 20:36 57.48544 -7.35065 18 ft 14 kts 245°
2026-04-16 20:37 57.48264 -7.35850 21 ft 128 kts 235°
2026-04-16 20:37 57.47606 -7.37624 104 ft 193 kts 235°
2026-04-16 20:37 57.46872 -7.39720 1192 ft 207 kts 237°
2026-04-16 20:37 57.45946 -7.41880 2378 ft 223 kts 221°
2026-04-16 20:38 57.44494 -7.43110 3181 ft 242 kts 185°
2026-04-16 20:38 57.42807 -7.42468 4079 ft 262 kts 151°
2026-04-16 20:38 57.41286 -7.40487 5170 ft 271 kts 143°
2026-04-16 20:38 57.39793 -7.38292 6312 ft 277 kts 141°
2026-04-16 20:39 57.38284 -7.36013 7409 ft 283 kts 141°
2026-04-16 20:39 57.36745 -7.33688 8453 ft 288 kts 141°
2026-04-16 20:39 57.35173 -7.31341 9446 ft 293 kts 142°
2026-04-16 20:39 57.33559 -7.28958 10302 ft 303 kts 142°
2026-04-16 20:40 57.31842 -7.26440 10683 ft 327 kts 142°
2026-04-16 20:40 57.29997 -7.23747 11056 ft 346 kts 142°
2026-04-16 20:40 57.28085 -7.20970 11704 ft 353 kts 142°
2026-04-16 20:40 57.26136 -7.18147 12404 ft 358 kts 142°
2026-04-16 20:41 57.24163 -7.15294 13084 ft 363 kts 142°
2026-04-16 20:41 57.22189 -7.12445 13719 ft 367 kts 142°
2026-04-16 20:41 57.20165 -7.09536 14334 ft 371 kts 142°
2026-04-16 20:41 57.18116 -7.06598 14918 ft 375 kts 142°
2026-04-16 20:42 57.16049 -7.03630 15484 ft 379 kts 142°
2026-04-16 20:42 57.13960 -7.00627 16024 ft 383 kts 142°
2026-04-16 20:42 57.11853 -6.97598 16548 ft 386 kts 142°
2026-04-16 20:42 57.09726 -6.94542 17057 ft 390 kts 142°
2026-04-16 20:43 57.07579 -6.91465 17543 ft 393 kts 142°
2026-04-16 20:43 57.05409 -6.88371 18020 ft 396 kts 142°
2026-04-16 20:43 57.03222 -6.85261 18487 ft 400 kts 142°
2026-04-16 20:43 57.01015 -6.82126 18939 ft 403 kts 142°
2026-04-16 20:44 56.98787 -6.78969 19377 ft 406 kts 142°
2026-04-16 20:44 56.96544 -6.75790 19804 ft 409 kts 142°
2026-04-16 20:44 56.94284 -6.72588 20219 ft 412 kts 142°
2026-04-16 20:44 56.92007 -6.69363 20618 ft 415 kts 142°
2026-04-16 20:45 56.89715 -6.66120 20999 ft 418 kts 142°
2026-04-16 20:45 56.87404 -6.62856 21364 ft 421 kts 142°
2026-04-16 20:45 56.85077 -6.59575 21714 ft 424 kts 143°
2026-04-16 20:45 56.82734 -6.56284 22045 ft 426 kts 143°
2026-04-16 20:46 56.80374 -6.52984 22355 ft 429 kts 143°
2026-04-16 20:46 56.77999 -6.49672 22646 ft 431 kts 143°
2026-04-16 20:46 56.75605 -6.46353 22907 ft 433 kts 143°
2026-04-16 20:46 56.73145 -6.43142 22997 ft 437 kts 146°
2026-04-16 20:47 56.70605 -6.40020 23011 ft 445 kts 147°
2026-04-16 20:47 56.67994 -6.36927 23009 ft 451 kts 147°
2026-04-16 20:47 56.65340 -6.33825 23009 ft 456 kts 147°
2026-04-16 20:47 56.62667 -6.30691 23009 ft 459 kts 147°
2026-04-16 20:48 56.59990 -6.27518 23009 ft 460 kts 147°
2026-04-16 20:48 56.57320 -6.24313 23009 ft 460 kts 147°
2026-04-16 20:48 56.55559 -6.22185 23009 ft 460 kts 146°
2026-04-16 20:48 56.52900 -6.18964 23009 ft 460 kts 146°
2026-04-16 20:49 56.50238 -6.15746 23009 ft 460 kts 147°
2026-04-16 20:49 56.47578 -6.12543 23009 ft 460 kts 147°
2026-04-16 20:49 56.44907 -6.09346 23009 ft 460 kts 147°
2026-04-16 20:49 56.42239 -6.06164 23008 ft 460 kts 147°
2026-04-16 20:50 56.39585 -6.03005 22708 ft 449 kts 147°
2026-04-16 20:50 56.37042 -5.99981 21804 ft 426 kts 147°
2026-04-16 20:50 56.34637 -5.97128 21176 ft 402 kts 147°
2026-04-16 20:50 56.32353 -5.94424 20569 ft 389 kts 147°
2026-04-16 20:51 56.30087 -5.91745 19967 ft 390 kts 147°
2026-04-16 20:51 56.27826 -5.89068 19357 ft 387 kts 147°
2026-04-16 20:51 56.25634 -5.86289 18743 ft 384 kts 140°
2026-04-16 20:51 56.23776 -5.82893 18094 ft 379 kts 129°
2026-04-16 20:52 56.22344 -5.78961 17447 ft 374 kts 117°
2026-04-16 20:52 56.21252 -5.74746 16775 ft 370 kts 115°
2026-04-16 20:52 56.20187 -5.70565 16101 ft 366 kts 115°
2026-04-16 20:52 56.19130 -5.66441 15426 ft 362 kts 115°
2026-04-16 20:53 56.18083 -5.62367 14745 ft 357 kts 115°
2026-04-16 20:53 56.17061 -5.58391 14074 ft 353 kts 115°
2026-04-16 20:53 56.16027 -5.54369 13392 ft 349 kts 115°
2026-04-16 20:53 56.15031 -5.50495 12732 ft 345 kts 115°
2026-04-16 20:54 56.14031 -5.46615 12065 ft 341 kts 115°
2026-04-16 20:54 56.13042 -5.42782 11404 ft 337 kts 115°
2026-04-16 20:54 56.12062 -5.39002 10748 ft 333 kts 115°
2026-04-16 20:54 56.11093 -5.35263 10425 ft 330 kts 115°
2026-04-16 20:55 56.10124 -5.31535 10173 ft 330 kts 115°
2026-04-16 20:55 56.09157 -5.27829 9935 ft 328 kts 115°
2026-04-16 20:55 56.08187 -5.24122 9810 ft 329 kts 115°
2026-04-16 20:55 56.07216 -5.20424 9685 ft 327 kts 115°
2026-04-16 20:56 56.06257 -5.16752 9560 ft 326 kts 114°
2026-04-16 20:56 56.05676 -5.12944 9427 ft 306 kts 96°
2026-04-16 20:56 56.05525 -5.09312 9300 ft 281 kts 94°
2026-04-16 20:56 56.05433 -5.06943 9214 ft 274 kts 94°
2026-04-16 20:57 56.05306 -5.03680 9089 ft 253 kts 94°
2026-04-16 20:57 56.05188 -5.00602 8968 ft 246 kts 94°
2026-04-16 20:57 56.05070 -4.97569 8841 ft 243 kts 94°
2026-04-16 20:57 56.04952 -4.94562 8715 ft 242 kts 94°
2026-04-16 20:58 56.04832 -4.91563 8589 ft 241 kts 95°
2026-04-16 20:58 56.04713 -4.88574 8464 ft 241 kts 94°
2026-04-16 20:58 56.04857 -4.85619 8341 ft 240 kts 69°
2026-04-16 20:58 56.05797 -4.83184 8094 ft 242 kts 38°
2026-04-16 20:59 56.07313 -4.81955 7718 ft 242 kts
2026-04-16 20:59 56.08959 -4.82325 7343 ft 241 kts 335°
2026-04-16 20:59 56.10277 -4.84135 6966 ft 241 kts 305°
2026-04-16 20:59 56.10876 -4.86889 6590 ft 240 kts 273°
2026-04-16 21:00 56.10651 -4.89833 6211 ft 240 kts 250°
2026-04-16 21:00 56.09786 -4.92363 5899 ft 238 kts 224°
2026-04-16 21:00 56.08429 -4.93892 5774 ft 228 kts 198°
2026-04-16 21:00 56.06879 -4.94200 5647 ft 225 kts 172°
2026-04-16 21:01 56.05416 -4.93271 5521 ft 225 kts 147°
2026-04-16 21:01 56.04317 -4.91295 5396 ft 226 kts 121°
2026-04-16 21:01 56.03802 -4.88655 5271 ft 227 kts 96°
2026-04-16 21:01 56.03722 -4.85838 5146 ft 227 kts 92°
2026-04-16 21:02 56.03651 -4.83020 5021 ft 227 kts 93°
2026-04-16 21:02 56.03577 -4.80205 4896 ft 226 kts 93°
2026-04-16 21:02 56.03500 -4.77399 4771 ft 226 kts 93°
2026-04-16 21:03 56.03341 -4.71800 4520 ft 225 kts 93°
2026-04-16 21:03 56.03263 -4.69010 4395 ft 224 kts 93°
2026-04-16 21:03 56.03185 -4.66226 4269 ft 224 kts 93°
2026-04-16 21:03 56.03105 -4.63449 4155 ft 223 kts 94°
2026-04-16 21:04 56.03022 -4.60677 4056 ft 223 kts 94°
2026-04-16 21:04 56.02941 -4.57945 4041 ft 224 kts 94°
2026-04-16 21:04 56.02856 -4.55092 4043 ft 228 kts 94°
2026-04-16 21:04 56.02773 -4.52298 4043 ft 229 kts 94°
2026-04-16 21:05 56.02689 -4.49455 4043 ft 229 kts 93°
2026-04-16 21:05 56.02605 -4.46616 4043 ft 229 kts 94°
2026-04-16 21:05 56.02518 -4.43736 4023 ft 230 kts 94°
2026-04-16 21:05 56.02431 -4.40912 3679 ft 226 kts 94°
2026-04-16 21:06 56.02348 -4.38202 3407 ft 214 kts 94°
2026-04-16 21:06 56.02267 -4.35570 3030 ft 209 kts 94°
2026-04-16 21:06 56.02184 -4.32959 2649 ft 206 kts 94°
2026-04-16 21:06 56.02101 -4.30426 2272 ft 203 kts 94°
2026-04-16 21:07 56.02022 -4.27950 2042 ft 195 kts 94°
2026-04-16 21:07 56.01948 -4.25583 2086 ft 189 kts 94°
2026-04-16 21:07 56.01865 -4.23046 2859 ft 211 kts 94°
2026-04-16 21:07 56.01767 -4.20629 3387 ft 196 kts 96°
2026-04-16 21:08 56.01271 -4.18445 3277 ft 190 kts 139°
2026-04-16 21:08 56.00083 -4.17679 3198 ft 186 kts 188°
2026-04-16 21:08 55.99011 -4.18804 3118 ft 184 kts 238°
2026-04-16 21:08 55.98558 -4.20941 3062 ft 186 kts 250°
2026-04-16 21:09 55.97944 -4.22955 2882 ft 185 kts 231°
2026-04-16 21:09 55.97106 -4.24696 2669 ft 185 kts 227°
2026-04-16 21:09 55.96234 -4.26366 2516 ft 184 kts 226°
2026-04-16 21:09 55.95349 -4.28006 2372 ft 184 kts 226°
2026-04-16 21:10 55.94471 -4.29656 2058 ft 179 kts 226°
2026-04-16 21:10 55.93653 -4.31198 1689 ft 162 kts 226°
2026-04-16 21:10 55.92928 -4.32552 1589 ft 139 kts 226°
2026-04-16 21:10 55.92292 -4.33769 1474 ft 130 kts 227°
2026-04-16 21:11 55.91682 -4.34917 1207 ft 125 kts 226°
2026-04-16 21:11 55.91091 -4.36033 1004 ft 123 kts 226°
2026-04-16 21:11 55.90501 -4.37132 825 ft 122 kts 226°
2026-04-16 21:11 55.89913 -4.38231 661 ft 123 kts 226°
2026-04-16 21:12 55.89329 -4.39329 496 ft 122 kts 226°
2026-04-16 21:12 55.88746 -4.40424 326 ft 122 kts 226°
2026-04-16 21:12 55.88165 -4.41517 123 ft 121 kts 226°
2026-04-16 21:12 55.87589 -4.42586 37 ft 113 kts 226°
2026-04-16 21:13 55.87138 -4.43430 34 ft 70 kts 226°
2026-04-16 21:13 55.86869 -4.43930 31 ft 44 kts 226°
2026-04-16 21:13 55.86733 -4.44187 33 ft 20 kts 226°
2026-04-16 21:13 55.86627 -4.44218 33 ft 17 kts 117°
2026-04-16 21:14 55.86622 -4.44003 29 ft 18 kts 86°
2026-04-16 21:14 55.86698 -4.43819 27 ft 21 kts 48°
2026-04-16 21:14 55.86758 -4.43575 30 ft 23 kts 70°
2026-04-16 21:14 55.86806 -4.43280 32 ft 26 kts 74°
2026-04-16 21:15 55.86840 -4.43059 32 ft 14 kts 89°
2026-04-16 21:15 55.86759 -4.42971 31 ft 17 kts 165°
2026-04-16 21:15 55.86674 -4.42986 31 ft 12 kts 247°
2026-04-16 21:15 55.86672 -4.43014 31 ft 0 kts 261°